Terminal Aerodrome Forecast
Issued by NWS

Current Version | Previous Version | Text Only | Print | Product List | Glossary Off
Versions: 1 2 3 4 5 6 7 8 9 10 11 12 13 14 15

000
FTUS41 KPBZ 211512 AAA
TAFHLG
TAF AMD
KHLG 211512Z 2115/2212 02008KT P6SM OVC060
      TEMPO 2115/2118 BKN014
     FM211800 30008KT P6SM BKN050
     FM220200 25005KT P6SM SCT050=

USA.gov is the U.S. government's official web portal to all federal, state and local government web resources and services.